Language selection

Weather shortcuts

South Labrador Sea: Past 24 Hour Conditions

 

West Chedabucto Bay - 44489

12:00 PM ADT 29 May 2024Buoy position: 45.49N 61.14W
Disclaimer

This table is a summary of hourly weather conditions for the past 24 hours.
Please note that these observations might not always be representative of weather conditions over their associated marine area.

Date / Time
(ADT)
Wind(knots) Wave height(m) Wave period(s) Pressure(kPa) Air tempC) Water tempC)
29 May 2024
12:00 SW 15 gusts 17 0.89 6.1 100.9 10 10
11:00 SW 9 gusts 12 0.88 6.3 100.8 10 10
10:00 SSW 2 gusts 5 0.81 5.9 100.9 11 9
9:00 WSW 9 gusts 13 0.83 6.2 100.9 10 9
8:00 SW 6 gusts 8 0.88 6.4 100.8 10 9
7:00 SW 11 gusts 14 0.81 6.5 100.8 10 9
6:00 WNW 5 gusts 8 0.74 6.6 100.8 11 9
5:00 WSW 17 gusts 19 0.78 6.5 100.7 11 9
4:00 SW 14 gusts 17 0.81 6.5 100.7 10 9
3:00 WSW 8 gusts 10 0.80 5.9 100.8 11 9
2:00 SW 15 gusts 17 0.93 6.0 100.8 11 9
1:00 WSW 12 gusts 15 0.95 5.7 100.9 10 9
0:00 WSW 14 gusts 17 1.18 5.1 100.9 11 9
28 May 2024
23:00 SW 22 gusts 26 1.31 4.9 100.9 12 9
22:00 SW 21 gusts 24 1.34 4.8 100.9 12 9
21:00 SSW 22 gusts 25 1.42 4.8 101.0 12 9
20:00 SSW 25 gusts 33 1.63 4.7 101.0 12 9
19:00 S 24 gusts 30 1.63 5.1 101.1 11 9
18:00 SSW 26 gusts 33 1.76 5.1 101.2 11 9
17:00 S 25 gusts 30 1.37 4.7 101.3 11 9
16:00 S 24 gusts 29 1.39 4.7 101.4 11 9
15:00 S 23 gusts 29 1.30 4.6 101.5 11 9
14:00 S 21 gusts 28 1.39 4.8 101.7 11 10
13:00 S 25 gusts 30 1.41 4.6 101.7 11 10
12:00 SSW 23 gusts 29 1.25 4.4 101.8 11 10

Zoom-in to make a selection

Map of Atlantic - Newfoundland marine weather areas Banquereau - 44139 East Chedabucto Bay – 44488 West Chedabucto Bay – 44489 Blanc-Sablon Airport Cap Whittle Chevery Natashquan Airport Heath Point Îles de la Madeleine Airport Miscou Island Eskasoni (First Nations) Grand Étang Ingonish Beach North Mountain St.Paul Island J.A. Douglas McCurdy Sydney Airport Charlottetown Airport East Point North Cape Argentia Berry Hill Bonavista Burgeo Cape Race Corner Brook Daniel's Harbour Englee Ferolle Point La Scie Port aux Basques Sagona Island St. Anthony Airport St. John's Int'l Airport St. Lawrence Stephenville Airport Twillingate Winterland Branch Hill Wreckhouse Grates Cove Pool's Island Marticot Island Long Pond Cartwright Airport Mary's Harbour
Legend:
buoy Buoy
land station Land Station

Atlantic - Newfoundland Area

Another Region

Features

New Predicting and Alerting Coastal Flooding Program

Find out about coastal flooding coverage, forecasts and warnings in your region

Date modified: